Time;durP1;ratioP1;P1;durP2;ratioP2;P2;SDS_P1;SDS_P2;PMS_P1;PMS_P2;Temp;Humidity;BMP_temperature;BMP_pressure;BME280_temperature;BME280_humidity;BME280_pressure;Samples;Min_cycle;Max_cycle;Signal;HPM_P1;HPM_P2
2023/02/12 00:01:23;;;;;;;16.80;13.23;;;3.10;99.90;;;;;;4923366;29;20424;-94
2023/02/12 00:03:52;;;;;;;20.83;11.68;;;3.10;99.90;;;;;;4931234;29;20051;-93
2023/02/12 00:06:22;;;;;;;22.63;13.60;;;3.00;99.90;;;;;;4928580;29;20337;-93
2023/02/12 00:08:51;;;;;;;17.35;13.10;;;3.00;99.90;;;;;;4929140;29;20047;-92
2023/02/12 00:11:24;;;;;;;17.67;13.48;;;3.00;99.90;;;;;;4929659;29;20040;-93
2023/02/12 00:13:52;;;;;;;19.88;11.40;;;3.10;99.90;;;;;;4913694;29;20055;-93
2023/02/12 00:16:23;;;;;;;19.58;12.77;;;3.10;99.90;;;;;;4928078;29;20051;-93
2023/02/12 00:18:53;;;;;;;20.23;13.85;;;3.10;99.90;;;;;;4946412;29;20456;-94
2023/02/12 00:21:25;;;;;;;19.95;12.00;;;3.10;99.90;;;;;;4950567;28;20058;-94
2023/02/12 00:23:54;;;;;;;20.85;12.50;;;3.10;99.90;;;;;;4949149;29;20400;-93
2023/02/12 00:26:22;;;;;;;20.27;11.68;;;3.10;99.90;;;;;;4946592;29;20048;-95
2023/02/12 00:28:51;;;;;;;15.32;11.95;;;3.10;99.90;;;;;;4952676;28;20058;-94
2023/02/12 00:31:22;;;;;;;20.25;13.52;;;3.10;99.90;;;;;;4947283;29;20757;-93
2023/02/12 00:33:50;;;;;;;24.45;15.40;;;3.10;99.90;;;;;;4956946;28;20526;-93
2023/02/12 00:36:21;;;;;;;21.55;12.98;;;3.10;99.90;;;;;;4936691;28;20059;-93
2023/02/12 00:38:51;;;;;;;20.77;11.65;;;3.00;99.90;;;;;;4935807;29;20051;-94
2023/02/12 00:41:18;;;;;;;15.65;10.45;;;3.00;99.90;;;;;;4922212;29;20047;-93
2023/02/12 00:43:47;;;;;;;18.20;11.85;;;3.00;99.90;;;;;;4949210;29;20428;-95
2023/02/12 00:46:15;;;;;;;17.27;11.35;;;3.10;99.90;;;;;;4925833;28;20050;-93
2023/02/12 00:48:43;;;;;;;19.77;13.48;;;3.00;99.90;;;;;;4904600;29;20051;-93
2023/02/12 00:51:14;;;;;;;22.55;14.65;;;3.10;99.90;;;;;;4920522;29;20056;-93
2023/02/12 00:53:42;;;;;;;27.67;14.40;;;3.10;99.90;;;;;;4934913;29;20068;-94
2023/02/12 00:56:09;;;;;;;21.98;12.25;;;3.10;99.90;;;;;;4944512;29;20059;-93
2023/02/12 00:58:37;;;;;;;28.80;14.25;;;3.10;99.90;;;;;;4935487;29;20416;-93
2023/02/12 01:01:07;;;;;;;23.67;15.20;;;3.10;99.90;;;;;;4937288;29;20408;-94
2023/02/12 01:03:35;;;;;;;20.20;14.18;;;3.10;99.90;;;;;;4931830;29;20063;-94
2023/02/12 01:06:04;;;;;;;22.80;12.88;;;3.10;99.90;;;;;;4953797;29;20051;-95
2023/02/12 01:08:33;;;;;;;21.80;14.07;;;3.10;99.90;;;;;;4951331;29;20062;-95
2023/02/12 01:11:03;;;;;;;16.60;11.68;;;3.10;99.90;;;;;;4937345;29;20062;-93
2023/02/12 01:13:32;;;;;;;16.33;11.60;;;3.00;99.90;;;;;;4936343;29;20047;-93
2023/02/12 01:16:07;;;;;;;19.05;11.65;;;3.00;99.90;;;;;;4954459;29;20054;-93
2023/02/12 01:18:38;;;;;;;23.77;15.27;;;3.00;99.90;;;;;;4950224;29;20413;-93
2023/02/12 01:21:15;;;;;;;22.70;13.20;;;2.90;99.90;;;;;;4919354;29;20048;-93
2023/02/12 01:23:45;;;;;;;22.35;14.18;;;2.90;99.90;;;;;;4949476;29;20055;-94
2023/02/12 01:26:14;;;;;;;23.00;14.70;;;3.00;99.90;;;;;;4940084;29;20047;-93
2023/02/12 01:28:48;;;;;;;24.58;11.88;;;3.00;99.90;;;;;;4936991;29;20054;-93
2023/02/12 01:31:18;;;;;;;20.67;12.80;;;3.10;99.90;;;;;;4959074;29;20063;-93
2023/02/12 01:33:48;;;;;;;17.92;13.85;;;3.10;99.90;;;;;;4955493;28;20416;-93
2023/02/12 01:36:16;;;;;;;24.42;14.75;;;3.10;99.90;;;;;;4921593;28;20075;-96
2023/02/12 01:38:44;;;;;;;29.02;16.20;;;3.10;99.90;;;;;;4937008;29;20054;-94
2023/02/12 01:41:17;;;;;;;25.20;15.27;;;3.00;99.90;;;;;;4936153;29;20495;-94
2023/02/12 01:44:04;;;;;;;19.10;14.27;;;3.00;99.90;;;;;;4918935;29;20043;-92
2023/02/12 01:46:31;;;;;;;28.30;14.63;;;3.00;99.90;;;;;;4944114;28;20420;-93
2023/02/12 01:49:00;;;;;;;26.67;15.52;;;2.90;99.90;;;;;;4920548;29;20565;-94
2023/02/12 01:51:28;;;;;;;22.92;15.00;;;2.90;99.90;;;;;;4935333;29;20043;-93
2023/02/12 01:53:59;;;;;;;24.75;15.60;;;2.80;99.90;;;;;;4952070;28;20047;-94
2023/02/12 01:56:28;;;;;;;21.17;15.83;;;2.90;99.90;;;;;;4917079;28;20081;-94
2023/02/12 01:58:56;;;;;;;25.02;15.73;;;2.90;99.90;;;;;;4934311;29;20311;-93
2023/02/12 02:01:27;;;;;;;23.48;14.48;;;2.80;99.90;;;;;;4911633;29;20050;-92
2023/02/12 02:04:10;;;;;;;28.83;13.18;;;2.80;99.90;;;;;;4938404;29;20561;-94
2023/02/12 02:07:02;;;;;;;22.25;13.48;;;2.80;99.90;;;;;;4935036;29;20071;-93
2023/02/12 02:09:35;;;;;;;21.95;12.85;;;2.90;99.90;;;;;;4914279;29;20039;-92
2023/02/12 02:14:59;;;;;;;19.88;12.10;;;3.00;99.90;;;;;;4917160;29;20302;-94
2023/02/12 02:17:58;;;;;;;24.25;13.38;;;2.90;99.90;;;;;;4951411;29;20436;-93
2023/02/12 02:20:54;;;;;;;23.50;13.15;;;2.90;99.90;;;;;;4942031;28;20051;-91
2023/02/12 02:24:01;;;;;;;29.63;13.57;;;2.90;99.90;;;;;;4933874;29;20051;-93
2023/02/12 02:27:13;;;;;;;21.98;13.02;;;3.00;99.90;;;;;;4918814;29;20052;-93
2023/02/12 02:30:07;;;;;;;23.92;14.15;;;2.90;99.90;;;;;;4913370;29;20050;-94
2023/02/12 02:33:00;;;;;;;21.65;13.60;;;3.00;99.90;;;;;;4947492;28;20052;-95
2023/02/12 02:35:36;;;;;;;28.95;16.17;;;2.90;99.90;;;;;;4920325;29;20051;-93
2023/02/12 02:38:07;;;;;;;24.23;12.75;;;2.80;99.90;;;;;;4933397;29;20043;-94
2023/02/12 02:40:52;;;;;;;19.10;12.00;;;2.70;99.90;;;;;;4933435;28;20055;-93
2023/02/12 02:43:28;;;;;;;22.95;14.57;;;2.60;99.90;;;;;;4920549;29;20063;-94
2023/02/12 02:46:08;;;;;;;34.13;15.50;;;2.70;99.90;;;;;;4943590;28;20051;-92
2023/02/12 02:48:44;;;;;;;27.73;16.30;;;2.70;99.90;;;;;;4946512;29;20051;-92
2023/02/12 02:51:20;;;;;;;36.10;16.75;;;2.70;99.90;;;;;;4904904;29;20058;-93
2023/02/12 02:53:54;;;;;;;31.80;13.73;;;2.70;99.90;;;;;;4932791;28;20063;-92
2023/02/12 02:56:23;;;;;;;30.60;16.08;;;2.70;99.90;;;;;;4930336;28;20460;-93
2023/02/12 02:58:58;;;;;;;25.88;15.65;;;2.70;99.90;;;;;;4915767;29;20066;-92
2023/02/12 03:01:31;;;;;;;34.67;18.08;;;2.80;99.90;;;;;;4920713;29;20054;-92
2023/02/12 03:04:05;;;;;;;54.17;14.93;;;2.70;99.90;;;;;;4931488;29;20051;-93
2023/02/12 03:06:38;;;;;;;21.52;13.98;;;2.80;99.90;;;;;;4949724;29;20047;-94
2023/02/12 03:09:18;;;;;;;22.02;13.50;;;2.80;99.90;;;;;;4945044;28;20047;-94
2023/02/12 03:11:46;;;;;;;25.77;16.38;;;2.80;99.90;;;;;;4945247;29;20059;-94
2023/02/12 03:14:25;;;;;;;30.05;16.70;;;2.80;99.90;;;;;;4917519;29;20047;-92
2023/02/12 03:16:57;;;;;;;26.77;17.80;;;2.90;99.90;;;;;;4926586;29;20050;-95
2023/02/12 03:19:27;;;;;;;;;;;2.90;99.90;;;;;;4937791;29;20051;-94
2023/02/12 03:22:05;;;;;;;22.73;14.23;;;2.90;99.90;;;;;;4953644;29;19929;-94
2023/02/12 03:24:45;;;;;;;37.00;15.23;;;2.90;99.90;;;;;;4936075;28;20046;-94
2023/02/12 03:27:19;;;;;;;29.27;14.70;;;2.90;99.90;;;;;;4934753;29;20042;-93
2023/02/12 03:29:47;;;;;;;41.22;16.27;;;2.90;99.90;;;;;;4939908;28;20074;-95
2023/02/12 03:32:34;;;;;;;26.10;13.40;;;2.90;99.90;;;;;;4952906;28;20082;-93
2023/02/12 03:35:24;;;;;;;37.65;18.60;;;2.90;99.90;;;;;;4937277;29;20063;-94
2023/02/12 03:38:14;;;;;;;24.80;12.98;;;2.90;99.90;;;;;;4953160;29;20058;-93
2023/02/12 03:41:05;;;;;;;24.38;15.38;;;2.80;99.90;;;;;;4925440;29;20062;-93
2023/02/12 03:43:45;;;;;;;27.90;17.50;;;2.80;99.90;;;;;;4924302;29;20067;-94
2023/02/12 03:46:19;;;;;;;29.88;17.30;;;2.80;99.90;;;;;;4930582;29;20047;-94
2023/02/12 03:49:11;;;;;;;24.83;14.43;;;2.80;99.90;;;;;;4935960;29;20055;-93
2023/02/12 03:51:44;;;;;;;30.50;15.27;;;2.80;99.90;;;;;;4954048;29;20057;-94
2023/02/12 03:54:16;;;;;;;33.28;15.68;;;2.80;99.90;;;;;;4906461;29;20043;-94
2023/02/12 03:56:53;;;;;;;26.85;14.45;;;2.80;99.90;;;;;;4955001;28;20058;-92
2023/02/12 03:59:23;;;;;;;24.67;15.63;;;2.70;99.90;;;;;;4941171;29;20360;-93
2023/02/12 04:01:52;;;;;;;21.08;13.65;;;2.70;99.90;;;;;;4922051;29;20058;-92
2023/02/12 04:04:21;;;;;;;23.73;15.43;;;2.80;99.90;;;;;;4947840;28;20043;-93
2023/02/12 04:06:51;;;;;;;27.63;15.60;;;2.80;99.90;;;;;;4943500;29;20055;-93
2023/02/12 04:09:21;;;;;;;33.75;16.77;;;2.80;99.90;;;;;;4941492;29;20054;-94
2023/02/12 04:12:03;;;;;;;31.08;17.73;;;2.80;99.90;;;;;;4943223;29;20447;-94
2023/02/12 04:15:00;;;;;;;27.65;15.73;;;2.80;99.90;;;;;;4959155;28;20439;-92
2023/02/12 04:17:41;;;;;;;28.33;16.38;;;2.70;99.90;;;;;;4932400;29;20048;-94
2023/02/12 04:20:37;;;;;;;28.40;15.05;;;2.60;99.90;;;;;;4951248;29;20051;-92
2023/02/12 04:23:34;;;;;;;22.70;13.68;;;2.60;99.90;;;;;;4945119;29;20040;-93
2023/02/12 04:26:20;;;;;;;23.17;16.80;;;2.60;99.90;;;;;;4955837;28;20066;-93
2023/02/12 04:29:27;;;;;;;28.35;14.57;;;2.60;99.90;;;;;;4961545;28;20232;-92
2023/02/12 04:32:17;;;;;;;26.63;15.73;;;2.60;99.90;;;;;;4946849;29;20043;-92
2023/02/12 04:34:45;;;;;;;28.67;15.90;;;2.60;99.90;;;;;;4976708;28;21196;-94
2023/02/12 04:37:19;;;;;;;20.80;13.02;;;2.60;99.90;;;;;;4960345;28;20051;-94
2023/02/12 04:39:50;;;;;;;21.95;15.25;;;2.60;99.90;;;;;;4978295;28;20043;-93
2023/02/12 04:42:17;;;;;;;20.27;14.73;;;2.60;99.90;;;;;;4945795;28;20031;-94
2023/02/12 04:44:45;;;;;;;25.67;13.98;;;2.60;99.90;;;;;;4962557;28;20057;-93
2023/02/12 04:47:14;;;;;;;25.35;13.88;;;2.70;99.90;;;;;;4971414;28;20065;-91
2023/02/12 04:49:42;;;;;;;23.50;14.38;;;2.70;99.90;;;;;;4959421;28;20055;-94
2023/02/12 04:52:09;;;;;;;23.48;14.05;;;2.70;99.90;;;;;;4963164;28;20037;-93
2023/02/12 04:54:37;;;;;;;23.67;16.00;;;2.70;99.90;;;;;;4977457;29;20049;-93
2023/02/12 04:57:05;;;;;;;19.33;12.65;;;2.70;99.90;;;;;;4946547;28;20115;-93
2023/02/12 04:59:33;;;;;;;28.60;18.45;;;2.70;99.90;;;;;;4931515;29;20096;-93
2023/02/12 05:02:01;;;;;;;25.98;15.57;;;2.70;99.90;;;;;;4978004;28;20047;-94
2023/02/12 05:04:29;;;;;;;27.23;14.05;;;2.60;99.90;;;;;;4977967;29;20061;-93
2023/02/12 05:06:58;;;;;;;24.48;15.13;;;2.60;99.90;;;;;;4961378;28;20047;-94
2023/02/12 05:09:25;;;;;;;29.13;16.23;;;2.70;99.90;;;;;;4976942;28;20036;-93
2023/02/12 05:11:53;;;;;;;27.52;15.57;;;2.70;99.90;;;;;;4944364;29;20045;-93
2023/02/12 05:14:23;;;;;;;23.10;13.90;;;2.70;99.90;;;;;;4977746;28;20031;-93
2023/02/12 05:16:51;;;;;;;22.88;15.50;;;2.70;99.90;;;;;;4960895;28;20028;-93
2023/02/12 05:19:19;;;;;;;27.15;14.93;;;2.70;99.90;;;;;;4977956;29;20046;-93
2023/02/12 05:21:49;;;;;;;28.63;16.95;;;2.70;99.90;;;;;;4961088;28;20049;-93
2023/02/12 05:24:18;;;;;;;29.75;14.27;;;2.70;99.90;;;;;;4976074;28;20043;-94
2023/02/12 05:26:48;;;;;;;27.92;17.20;;;2.70;99.90;;;;;;4972716;29;20035;-92
2023/02/12 05:29:18;;;;;;;25.77;16.08;;;2.60;99.90;;;;;;4954339;29;20054;-94
2023/02/12 05:31:46;;;;;;;25.50;14.10;;;2.60;99.90;;;;;;4959952;29;20035;-93
2023/02/12 05:34:14;;;;;;;23.65;13.90;;;2.50;99.90;;;;;;4962007;28;20047;-94
2023/02/12 05:36:41;;;;;;;20.50;14.25;;;2.40;99.90;;;;;;4961174;28;20035;-94
2023/02/12 05:39:09;;;;;;;26.77;16.27;;;2.40;99.90;;;;;;4970681;28;20031;-93
2023/02/12 05:41:37;;;;;;;25.70;16.58;;;2.30;99.90;;;;;;4976132;28;20042;-95
2023/02/12 05:44:05;;;;;;;34.60;15.55;;;2.40;99.90;;;;;;4976373;28;20051;-92
2023/02/12 05:46:33;;;;;;;32.10;18.63;;;2.30;99.90;;;;;;4929136;28;20039;-93
2023/02/12 05:49:02;;;;;;;35.03;16.80;;;2.30;99.90;;;;;;4939980;29;20035;-92
2023/02/12 05:51:31;;;;;;;37.33;20.17;;;2.30;99.90;;;;;;4932939;29;20060;-94
2023/02/12 05:54:02;;;;;;;30.10;20.33;;;2.20;99.90;;;;;;4918318;29;20054;-93
2023/02/12 05:56:32;;;;;;;24.10;18.35;;;2.20;99.90;;;;;;4953115;28;20051;-94
2023/02/12 05:59:07;;;;;;;28.70;17.95;;;2.20;99.90;;;;;;4933036;29;20405;-94
2023/02/12 06:01:37;;;;;;;32.67;16.55;;;2.20;99.90;;;;;;4934166;29;20466;-93
2023/02/12 06:04:09;;;;;;;;;;;2.20;99.90;;;;;;4921015;29;20051;-93
2023/02/12 06:06:36;;;;;;;26.85;18.13;;;2.10;99.90;;;;;;4919173;29;19933;-92
2023/02/12 06:09:04;;;;;;;48.97;20.35;;;2.10;99.90;;;;;;4915796;29;20264;-93
2023/02/12 06:11:32;;;;;;;44.38;20.35;;;2.00;99.90;;;;;;4932216;29;20503;-94
2023/02/12 06:14:04;;;;;;;29.17;19.10;;;2.00;99.90;;;;;;4935123;28;20047;-92
2023/02/12 06:16:32;;;;;;;50.90;22.77;;;2.10;99.90;;;;;;4941946;28;20055;-94
2023/02/12 06:19:03;;;;;;;33.83;20.85;;;2.00;99.90;;;;;;4949576;28;20070;-93
2023/02/12 06:21:34;;;;;;;26.67;17.95;;;2.00;99.90;;;;;;4948600;28;20058;-94
2023/02/12 06:24:03;;;;;;;32.67;20.27;;;2.00;99.90;;;;;;4933237;29;20753;-94
2023/02/12 06:26:31;;;;;;;43.80;22.25;;;2.00;99.90;;;;;;4932133;29;20051;-93
2023/02/12 06:28:58;;;;;;;31.35;17.67;;;2.00;99.90;;;;;;4950161;28;20054;-92
2023/02/12 06:31:33;;;;;;;30.42;18.83;;;2.00;99.90;;;;;;4936038;29;20419;-93
2023/02/12 06:34:04;;;;;;;33.53;20.23;;;1.90;99.90;;;;;;4941901;28;20039;-92
2023/02/12 06:36:32;;;;;;;37.50;20.80;;;1.90;99.90;;;;;;4948198;28;20399;-92
2023/02/12 06:39:01;;;;;;;30.65;19.67;;;1.90;99.90;;;;;;4918512;29;20059;-93
2023/02/12 06:41:29;;;;;;;33.85;20.15;;;1.90;99.90;;;;;;4931897;29;20058;-93
2023/02/12 06:43:57;;;;;;;30.35;18.38;;;1.90;99.90;;;;;;4928780;29;20055;-92
2023/02/12 06:46:25;;;;;;;32.17;20.65;;;1.90;99.90;;;;;;4945711;28;20057;-92
2023/02/12 06:48:58;;;;;;;36.92;19.55;;;1.90;99.90;;;;;;4918787;29;20043;-93
2023/02/12 06:51:28;;;;;;;36.90;22.63;;;1.90;99.90;;;;;;4934694;29;20128;-93
2023/02/12 06:53:56;;;;;;;30.20;20.13;;;2.00;99.90;;;;;;4930279;28;20436;-91
2023/02/12 06:56:26;;;;;;;40.13;21.98;;;2.00;99.90;;;;;;4916594;29;20060;-93
2023/02/12 06:58:57;;;;;;;34.65;20.65;;;2.00;99.90;;;;;;4938585;29;20039;-93
2023/02/12 07:01:26;;;;;;;32.25;22.20;;;2.10;99.90;;;;;;4931213;29;20408;-94
2023/02/12 07:04:02;;;;;;;41.22;20.42;;;2.10;99.90;;;;;;4931499;29;20048;-92
2023/02/12 07:06:33;;;;;;;35.85;21.85;;;2.10;99.90;;;;;;4935128;29;20500;-93
2023/02/12 07:09:02;;;;;;;41.47;23.02;;;2.10;99.90;;;;;;4949574;29;20059;-94
2023/02/12 07:11:33;;;;;;;35.25;20.42;;;2.20;99.90;;;;;;4942311;29;20047;-93
2023/02/12 07:14:06;;;;;;;40.90;21.13;;;2.20;99.90;;;;;;4934792;29;20046;-92
2023/02/12 07:16:34;;;;;;;41.10;24.15;;;2.20;99.90;;;;;;4951809;29;20039;-94
2023/02/12 07:19:01;;;;;;;42.85;20.90;;;2.30;99.90;;;;;;4916687;29;20485;-92
2023/02/12 07:21:30;;;;;;;33.35;20.25;;;2.30;99.90;;;;;;4944567;28;20054;-93
2023/02/12 07:23:59;;;;;;;38.08;22.45;;;2.40;99.90;;;;;;4948731;29;20047;-93
2023/02/12 07:26:26;;;;;;;37.92;20.40;;;2.40;99.90;;;;;;4933047;29;20125;-93
2023/02/12 07:28:57;;;;;;;43.60;23.92;;;2.50;99.90;;;;;;4915423;29;20051;-95
2023/02/12 07:31:25;;;;;;;36.03;22.77;;;2.60;99.90;;;;;;4918601;29;20058;-93
2023/02/12 07:33:55;;;;;;;34.10;18.60;;;2.60;99.90;;;;;;4950659;28;20054;-94
2023/02/12 07:36:24;;;;;;;39.88;22.92;;;2.70;99.90;;;;;;4935261;29;20055;-93
2023/02/12 07:38:53;;;;;;;36.65;22.10;;;2.80;99.90;;;;;;4898648;29;20057;-93
2023/02/12 07:41:41;;;;;;;43.25;23.88;;;2.90;99.90;;;;;;4934074;28;20048;-93
2023/02/12 07:44:11;;;;;;;48.58;22.45;;;2.90;99.90;;;;;;4927643;29;20060;-92
2023/02/12 07:46:40;;;;;;;39.03;24.00;;;3.00;99.90;;;;;;4917562;29;20058;-93
2023/02/12 07:49:12;;;;;;;33.35;19.50;;;3.00;99.90;;;;;;4945837;29;20036;-92
2023/02/12 07:51:41;;;;;;;40.42;21.65;;;3.10;99.90;;;;;;4951638;29;20047;-93
2023/02/12 07:54:13;;;;;;;34.15;21.55;;;3.10;99.90;;;;;;4933125;28;20382;-93
2023/02/12 07:56:45;;;;;;;48.28;22.17;;;3.10;99.90;;;;;;4933638;29;20050;-93
2023/02/12 07:59:16;;;;;;;31.40;19.30;;;3.10;99.90;;;;;;4937836;29;20047;-94
2023/02/12 08:01:49;;;;;;;28.03;17.70;;;3.10;99.90;;;;;;4934068;29;20070;-94
2023/02/12 08:04:19;;;;;;;36.90;18.42;;;3.20;99.90;;;;;;4917786;29;20051;-95
2023/02/12 08:06:49;;;;;;;36.10;20.73;;;3.20;99.90;;;;;;4940032;29;20052;-93
2023/02/12 08:09:20;;;;;;;32.05;20.02;;;3.30;99.90;;;;;;4933190;29;20039;-93
2023/02/12 08:11:47;;;;;;;32.08;17.48;;;3.40;99.90;;;;;;4923090;29;20059;-93
2023/02/12 08:14:18;;;;;;;41.40;22.00;;;3.40;99.90;;;;;;4918876;29;20136;-93
2023/02/12 08:16:47;;;;;;;28.43;16.80;;;3.50;99.90;;;;;;4934554;29;20051;-94
2023/02/12 08:19:16;;;;;;;25.50;16.00;;;3.50;99.90;;;;;;4936089;29;20059;-92
2023/02/12 08:21:51;;;;;;;35.22;19.55;;;3.60;99.90;;;;;;4939798;28;20047;-93
2023/02/12 08:24:23;;;;;;;37.38;21.38;;;3.60;99.90;;;;;;4929962;28;20062;-91
2023/02/12 08:26:51;;;;;;;;;;;3.70;99.90;;;;;;4919792;29;20052;-92
2023/02/12 08:29:26;;;;;;;31.55;18.15;;;3.70;99.90;;;;;;4952732;28;19933;-92
2023/02/12 08:31:59;;;;;;;31.92;21.45;;;3.70;99.90;;;;;;4918976;28;20054;-93
2023/02/12 08:34:30;;;;;;;35.95;21.52;;;3.90;99.90;;;;;;4931396;29;20052;-93
2023/02/12 08:36:58;;;;;;;23.30;16.57;;;4.00;99.90;;;;;;4939021;28;20051;-94
2023/02/12 08:39:28;;;;;;;32.47;16.77;;;4.10;99.90;;;;;;4935354;29;20292;-93
2023/02/12 08:41:57;;;;;;;31.25;20.65;;;4.30;99.90;;;;;;4937440;28;20132;-93
2023/02/12 08:44:25;;;;;;;27.88;16.88;;;4.50;99.90;;;;;;4935232;29;20065;-92
2023/02/12 08:46:54;;;;;;;30.23;18.05;;;4.50;99.90;;;;;;4947537;29;20051;-93
2023/02/12 08:49:24;;;;;;;33.90;18.73;;;4.60;99.90;;;;;;4937863;29;20043;-94
2023/02/12 08:51:55;;;;;;;28.33;18.70;;;4.70;99.90;;;;;;4956114;29;20416;-94
2023/02/12 08:54:26;;;;;;;29.65;17.67;;;4.70;99.90;;;;;;4936550;29;20416;-94
2023/02/12 08:56:56;;;;;;;34.20;19.45;;;4.80;99.90;;;;;;4921578;29;20036;-92
2023/02/12 08:59:24;;;;;;;26.95;17.33;;;4.70;99.90;;;;;;4936333;29;20055;-93
2023/02/12 09:01:52;;;;;;;27.92;16.40;;;4.80;99.90;;;;;;4933280;29;20051;-94
2023/02/12 09:04:23;;;;;;;27.92;18.25;;;4.70;99.90;;;;;;4951950;29;20051;-93
2023/02/12 09:06:52;;;;;;;22.30;18.13;;;4.90;99.90;;;;;;4937528;29;20055;-92
2023/02/12 09:09:20;;;;;;;33.53;19.65;;;4.90;99.90;;;;;;4944712;29;20035;-94
2023/02/12 09:11:48;;;;;;;36.05;20.20;;;4.80;99.90;;;;;;4921453;29;20070;-93
2023/02/12 09:14:22;;;;;;;28.45;18.98;;;4.90;99.90;;;;;;4934989;29;20444;-94
2023/02/12 09:16:52;;;;;;;21.85;15.57;;;4.80;99.90;;;;;;4936270;29;20054;-94
2023/02/12 09:19:20;;;;;;;31.10;17.02;;;5.00;99.90;;;;;;4953775;29;20058;-93
2023/02/12 09:21:52;;;;;;;31.88;19.38;;;5.10;99.90;;;;;;4952471;28;20420;-94
2023/02/12 09:24:24;;;;;;;26.67;16.38;;;5.10;99.90;;;;;;4950922;29;20055;-93
2023/02/12 09:26:52;;;;;;;24.48;15.70;;;5.20;99.90;;;;;;4953503;29;20043;-92
2023/02/12 09:29:19;;;;;;;23.63;16.42;;;5.20;99.90;;;;;;4937660;29;20605;-94
2023/02/12 09:31:47;;;;;;;24.58;16.02;;;5.30;99.90;;;;;;4955138;29;20047;-93
2023/02/12 09:34:15;;;;;;;20.70;14.52;;;5.40;99.90;;;;;;4938522;29;20050;-94
2023/02/12 09:36:42;;;;;;;23.95;13.85;;;5.50;99.90;;;;;;4938266;29;20050;-93
2023/02/12 09:39:10;;;;;;;22.50;15.98;;;5.60;99.90;;;;;;4954051;29;20059;-92
2023/02/12 09:42:06;;;;;;;33.60;14.32;;;5.50;99.90;;;;;;4936754;29;20058;-94
2023/02/12 09:44:48;;;;;;;23.13;14.27;;;5.50;99.90;;;;;;4901031;29;20062;-94
2023/02/12 09:47:25;;;;;;;24.85;14.82;;;5.60;99.90;;;;;;4957738;28;20051;-93
2023/02/12 09:49:55;;;;;;;20.25;13.13;;;5.60;99.90;;;;;;4936574;29;20047;-95
2023/02/12 09:52:26;;;;;;;21.30;13.82;;;5.70;99.90;;;;;;4953880;28;20059;-95
2023/02/12 09:54:54;;;;;;;19.92;12.93;;;6.00;99.90;;;;;;4936051;29;20409;-94
2023/02/12 09:57:36;;;;;;;14.13;8.65;;;6.00;99.90;;;;;;4935983;29;20047;-94
2023/02/12 10:00:08;;;;;;;17.80;11.77;;;6.10;99.90;;;;;;4936553;29;20762;-94
2023/02/12 10:02:38;;;;;;;14.05;9.48;;;6.10;99.90;;;;;;4929915;29;20050;-92
2023/02/12 10:05:16;;;;;;;3.63;2.95;;;6.20;99.90;;;;;;4935746;29;20043;-94
2023/02/12 10:07:52;;;;;;;4.50;2.88;;;6.30;99.90;;;;;;4936511;29;20047;-95
2023/02/12 10:10:40;;;;;;;5.07;3.58;;;6.30;99.90;;;;;;4933747;29;20420;-93
2023/02/12 10:13:26;;;;;;;4.50;2.72;;;6.40;99.90;;;;;;4951692;28;20051;-94
2023/02/12 10:16:32;;;;;;;1.77;1.60;;;6.40;99.90;;;;;;4943413;29;20519;-93
2023/02/12 10:19:02;;;;;;;5.30;2.65;;;6.10;99.90;;;;;;4879670;29;20271;-95
2023/02/12 10:22:14;;;;;;;3.83;2.20;;;6.00;99.90;;;;;;4860450;29;20055;-93
2023/02/12 10:25:14;;;;;;;4.18;2.58;;;6.20;99.90;;;;;;4922531;29;20040;-93
2023/02/12 10:27:54;;;;;;;2.58;2.15;;;6.30;99.90;;;;;;4943845;29;20510;-95
2023/02/12 10:30:30;;;;;;;2.78;2.58;;;6.30;99.90;;;;;;4932128;29;20487;-93
2023/02/12 10:33:10;;;;;;;1.63;1.52;;;6.20;99.90;;;;;;4935222;28;20055;-94
2023/02/12 10:35:46;;;;;;;3.72;2.40;;;6.20;99.90;;;;;;4938241;29;20062;-94
2023/02/12 10:38:18;;;;;;;3.28;2.15;;;6.20;99.90;;;;;;4920413;29;20543;-94
2023/02/12 10:40:49;;;;;;;3.58;2.22;;;6.10;99.90;;;;;;4951747;28;20419;-93
2023/02/12 10:43:16;;;;;;;4.05;2.83;;;6.00;99.90;;;;;;4952698;29;20048;-92
2023/02/12 10:45:44;;;;;;;3.17;2.42;;;6.00;99.90;;;;;;4924721;28;20067;-94
2023/02/12 10:48:23;;;;;;;3.22;2.15;;;6.00;99.90;;;;;;4939706;29;20066;-92
2023/02/12 10:51:03;;;;;;;3.95;2.67;;;6.10;99.90;;;;;;4918768;29;20095;-94
2023/02/12 10:53:33;;;;;;;4.70;3.72;;;6.30;99.90;;;;;;4936708;29;20047;-93
2023/02/12 10:56:10;;;;;;;7.43;3.87;;;6.50;99.90;;;;;;4935475;29;20055;-94
2023/02/12 10:58:59;;;;;;;3.40;2.88;;;6.70;99.90;;;;;;4904767;29;20294;-93
2023/02/12 11:01:31;;;;;;;2.78;2.15;;;6.90;99.90;;;;;;4928966;29;20051;-94
2023/02/12 11:04:17;;;;;;;4.28;2.40;;;7.30;99.90;;;;;;4958179;29;20535;-94
2023/02/12 11:07:03;;;;;;;5.18;3.60;;;7.50;99.90;;;;;;4954101;28;20055;-94
2023/02/12 11:09:44;;;;;;;5.05;3.13;;;7.40;99.90;;;;;;4922502;29;20054;-92
2023/02/12 11:12:35;;;;;;;1.83;1.67;;;7.40;99.90;;;;;;4922762;29;20070;-93
2023/02/12 11:15:17;;;;;;;3.10;2.83;;;7.40;99.90;;;;;;4935217;29;20405;-93
2023/02/12 11:17:56;;;;;;;2.45;2.25;;;7.30;99.90;;;;;;4941711;28;20056;-95
2023/02/12 11:20:33;;;;;;;3.25;2.63;;;7.20;99.90;;;;;;4920361;28;20051;-94
2023/02/12 11:23:04;;;;;;;5.65;4.55;;;7.10;99.90;;;;;;4953374;29;20043;-94
2023/02/12 11:25:35;;;;;;;4.85;2.55;;;7.10;99.90;;;;;;4916712;29;20052;-95
2023/02/12 11:28:17;;;;;;;2.83;2.47;;;7.10;99.90;;;;;;4939286;29;20051;-94
2023/02/12 11:31:11;;;;;;;3.08;2.38;;;7.00;99.90;;;;;;4932996;29;20048;-93
2023/02/12 11:33:42;;;;;;;3.40;2.40;;;6.90;99.90;;;;;;4947837;28;20051;-93
2023/02/12 11:36:26;;;;;;;3.88;2.55;;;6.80;99.90;;;;;;4935839;29;20058;-92
2023/02/12 11:38:56;;;;;;;3.33;3.05;;;6.80;99.90;;;;;;4939872;29;20048;-93
2023/02/12 11:41:36;;;;;;;5.07;3.72;;;7.00;99.90;;;;;;4932368;29;20054;-94
2023/02/12 11:44:17;;;;;;;1.75;1.65;;;6.90;99.90;;;;;;4934193;29;20066;-92
2023/02/12 11:46:52;;;;;;;2.53;2.30;;;7.00;99.90;;;;;;4871107;29;20529;-95
2023/02/12 11:49:26;;;;;;;1.58;1.48;;;7.20;99.90;;;;;;4890962;29;20122;-92
2023/02/12 11:51:55;;;;;;;2.35;1.88;;;7.60;99.90;;;;;;4879721;29;20488;-92
2023/02/12 11:54:27;;;;;;;2.53;1.67;;;7.80;99.90;;;;;;4860162;29;20152;-92
2023/02/12 11:56:55;;;;;;;3.22;2.55;;;8.10;99.90;;;;;;4889779;29;20053;-93
2023/02/12 11:59:29;;;;;;;2.88;1.65;;;8.20;99.90;;;;;;4890476;29;20061;-93
2023/02/12 12:02:02;;;;;;;1.80;1.67;;;8.20;99.90;;;;;;4867949;29;20445;-92
2023/02/12 12:04:34;;;;;;;2.95;1.92;;;8.70;99.90;;;;;;4881448;29;20073;-93
2023/02/12 12:07:19;;;;;;;2.42;1.70;;;8.90;99.90;;;;;;4873450;29;20506;-94
2023/02/12 12:10:06;;;;;;;3.13;1.95;;;9.20;99.90;;;;;;4875784;29;20053;-92
2023/02/12 12:12:57;;;;;;;1.63;1.52;;;9.20;99.90;;;;;;4881476;29;20045;-93
2023/02/12 12:21:37;;;;;;;2.92;2.72;;;8.30;99.90;;;;;;4936797;29;20507;-93
2023/02/12 12:24:19;;;;;;;2.53;2.03;;;8.20;99.90;;;;;;4918930;29;20052;-93
2023/02/12 12:26:59;;;;;;;3.80;2.03;;;8.00;99.90;;;;;;4935516;29;20066;-93
2023/02/12 12:29:48;;;;;;;3.65;2.80;;;8.00;99.90;;;;;;4942454;29;20039;-94
2023/02/12 12:32:18;;;;;;;2.38;2.17;;;7.90;99.90;;;;;;4937112;28;20055;-93
2023/02/12 12:34:47;;;;;;;2.97;2.67;;;7.90;99.90;;;;;;4937126;29;20512;-93
2023/02/12 12:37:26;;;;;;;2.58;2.38;;;7.80;99.90;;;;;;4921955;29;20413;-93
2023/02/12 12:40:22;;;;;;;2.60;1.75;;;7.80;99.90;;;;;;4936848;29;20452;-95
2023/02/12 12:42:54;;;;;;;4.78;2.60;;;7.80;99.90;;;;;;4921607;29;20512;-94
2023/02/12 12:45:25;;;;;;;2.55;2.13;;;7.90;99.90;;;;;;4940935;28;20055;-94
2023/02/12 12:48:10;;;;;;;3.55;3.03;;;7.80;99.90;;;;;;4944522;29;20055;-94
2023/02/12 12:51:42;;;;;;;4.75;2.95;;;7.80;99.90;;;;;;4952352;29;20043;-93
2023/02/12 12:54:20;;;;;;;5.27;3.47;;;7.80;99.90;;;;;;4857618;29;20168;-93
2023/02/12 12:56:53;;;;;;;2.92;2.63;;;7.90;99.90;;;;;;4873695;29;20364;-93
2023/02/12 12:59:35;;;;;;;3.45;2.50;;;8.00;99.90;;;;;;4922566;29;20055;-94
2023/02/12 13:02:02;;;;;;;;;;;7.90;99.90;;;;;;4937702;29;20051;-94
2023/02/12 13:04:58;;;;;;;1.88;1.67;;;7.90;99.90;;;;;;4953500;29;19930;-94
2023/02/12 13:07:35;;;;;;;5.28;3.53;;;7.70;99.90;;;;;;4937536;29;20050;-94
2023/02/12 13:10:30;;;;;;;3.08;2.78;;;7.80;99.90;;;;;;4933557;29;20512;-94
2023/02/12 13:13:04;;;;;;;3.85;3.15;;;7.70;99.90;;;;;;4909023;29;20060;-95
2023/02/12 13:15:47;;;;;;;4.70;3.03;;;7.50;99.90;;;;;;4918360;29;20196;-96
2023/02/12 13:18:30;;;;;;;4.45;2.40;;;7.60;99.90;;;;;;4935167;29;20047;-94
2023/02/12 13:21:17;;;;;;;4.22;2.83;;;7.50;99.90;;;;;;4933780;29;20048;-94
2023/02/12 13:23:56;;;;;;;2.90;2.65;;;7.70;99.90;;;;;;4935565;29;20082;-94
2023/02/12 13:26:32;;;;;;;3.40;2.55;;;7.60;99.90;;;;;;4939341;29;20040;-92
2023/02/12 13:29:07;;;;;;;6.05;2.75;;;7.60;99.90;;;;;;4923246;29;20050;-93